sensor_id;sensor_type;location;lat;lon;timestamp;temperature;humidity
9383;DHT22;4731;49.708;10.816;2023-09-08T00:02:10;16.10;99.90
9383;DHT22;4731;49.708;10.816;2023-09-08T00:04:37;16.00;99.90
9383;DHT22;4731;49.708;10.816;2023-09-08T00:07:03;16.00;99.90
9383;DHT22;4731;49.708;10.816;2023-09-08T00:09:30;15.90;99.90
9383;DHT22;4731;49.708;10.816;2023-09-08T00:11:58;15.90;99.90
9383;DHT22;4731;49.708;10.816;2023-09-08T00:14:25;16.60;99.90
9383;DHT22;4731;49.708;10.816;2023-09-08T00:16:52;15.90;99.90
9383;DHT22;4731;49.708;10.816;2023-09-08T00:19:20;15.90;99.90
9383;DHT22;4731;49.708;10.816;2023-09-08T00:21:46;16.00;99.90
9383;DHT22;4731;49.708;10.816;2023-09-08T00:24:14;17.90;99.90
9383;DHT22;4731;49.708;10.816;2023-09-08T00:26:41;15.70;99.90
9383;DHT22;4731;49.708;10.816;2023-09-08T00:29:09;15.60;99.90
9383;DHT22;4731;49.708;10.816;2023-09-08T00:31:36;15.70;99.90
9383;DHT22;4731;49.708;10.816;2023-09-08T00:34:02;15.90;99.90
9383;DHT22;4731;49.708;10.816;2023-09-08T00:36:29;15.60;99.90
9383;DHT22;4731;49.708;10.816;2023-09-08T00:38:56;15.60;99.90
9383;DHT22;4731;49.708;10.816;2023-09-08T00:41:23;15.60;99.90
9383;DHT22;4731;49.708;10.816;2023-09-08T00:43:50;15.60;99.90
9383;DHT22;4731;49.708;10.816;2023-09-08T00:46:18;17.80;99.90
9383;DHT22;4731;49.708;10.816;2023-09-08T00:48:45;15.60;99.90
9383;DHT22;4731;49.708;10.816;2023-09-08T00:51:12;16.30;99.90
9383;DHT22;4731;49.708;10.816;2023-09-08T00:53:39;15.50;99.90
9383;DHT22;4731;49.708;10.816;2023-09-08T00:56:07;15.40;99.90
9383;DHT22;4731;49.708;10.816;2023-09-08T01:03:31;15.10;99.90
9383;DHT22;4731;49.708;10.816;2023-09-08T01:05:58;15.00;99.90
9383;DHT22;4731;49.708;10.816;2023-09-08T01:08:25;15.10;99.90
9383;DHT22;4731;49.708;10.816;2023-09-08T01:10:52;14.90;99.90
9383;DHT22;4731;49.708;10.816;2023-09-08T01:13:20;15.00;99.90
9383;DHT22;4731;49.708;10.816;2023-09-08T01:15:46;16.50;99.90
9383;DHT22;4731;49.708;10.816;2023-09-08T01:18:14;16.70;99.90
9383;DHT22;4731;49.708;10.816;2023-09-08T01:20:55;14.70;99.90
9383;DHT22;4731;49.708;10.816;2023-09-08T01:23:37;17.20;99.90
9383;DHT22;4731;49.708;10.816;2023-09-08T01:26:10;15.90;99.90
9383;DHT22;4731;49.708;10.816;2023-09-08T01:28:41;14.50;99.90
9383;DHT22;4731;49.708;10.816;2023-09-08T01:31:08;14.90;99.90
9383;DHT22;4731;49.708;10.816;2023-09-08T01:33:36;14.60;99.90
9383;DHT22;4731;49.708;10.816;2023-09-08T01:36:03;15.90;99.90
9383;DHT22;4731;49.708;10.816;2023-09-08T01:38:30;14.70;99.90
9383;DHT22;4731;49.708;10.816;2023-09-08T01:40:57;14.70;99.90
9383;DHT22;4731;49.708;10.816;2023-09-08T01:43:25;16.80;99.90
9383;DHT22;4731;49.708;10.816;2023-09-08T01:45:51;14.60;99.90
9383;DHT22;4731;49.708;10.816;2023-09-08T01:48:18;14.50;99.90
9383;DHT22;4731;49.708;10.816;2023-09-08T01:50:46;14.50;99.90
9383;DHT22;4731;49.708;10.816;2023-09-08T01:53:13;14.50;99.90
9383;DHT22;4731;49.708;10.816;2023-09-08T01:55:40;14.50;99.90
9383;DHT22;4731;49.708;10.816;2023-09-08T01:58:07;14.40;99.90
9383;DHT22;4731;49.708;10.816;2023-09-08T02:00:35;15.40;99.90
9383;DHT22;4731;49.708;10.816;2023-09-08T02:03:02;14.50;99.90
9383;DHT22;4731;49.708;10.816;2023-09-08T02:05:29;16.80;99.90
9383;DHT22;4731;49.708;10.816;2023-09-08T02:07:56;14.40;99.90
9383;DHT22;4731;49.708;10.816;2023-09-08T02:10:22;14.30;99.90
9383;DHT22;4731;49.708;10.816;2023-09-08T02:12:49;14.30;99.90
9383;DHT22;4731;49.708;10.816;2023-09-08T02:15:16;15.20;99.90
9383;DHT22;4731;49.708;10.816;2023-09-08T02:17:44;16.20;99.90
9383;DHT22;4731;49.708;10.816;2023-09-08T02:20:11;15.30;99.90
9383;DHT22;4731;49.708;10.816;2023-09-08T02:22:38;14.20;99.90
9383;DHT22;4731;49.708;10.816;2023-09-08T02:25:06;14.20;99.90
9383;DHT22;4731;49.708;10.816;2023-09-08T02:27:32;14.10;99.90
9383;DHT22;4731;49.708;10.816;2023-09-08T02:29:59;15.50;99.90
9383;DHT22;4731;49.708;10.816;2023-09-08T02:32:26;14.70;99.90
9383;DHT22;4731;49.708;10.816;2023-09-08T02:34:54;14.60;99.90
9383;DHT22;4731;49.708;10.816;2023-09-08T02:37:21;16.10;99.90
9383;DHT22;4731;49.708;10.816;2023-09-08T02:39:47;14.00;99.90
9383;DHT22;4731;49.708;10.816;2023-09-08T02:42:14;15.00;99.90
9383;DHT22;4731;49.708;10.816;2023-09-08T02:44:42;13.90;99.90
9383;DHT22;4731;49.708;10.816;2023-09-08T02:47:10;13.90;99.90
9383;DHT22;4731;49.708;10.816;2023-09-08T02:49:36;13.90;99.90
9383;DHT22;4731;49.708;10.816;2023-09-08T02:52:05;13.80;99.90
9383;DHT22;4731;49.708;10.816;2023-09-08T02:54:31;13.70;99.90
9383;DHT22;4731;49.708;10.816;2023-09-08T02:56:58;13.70;99.90
9383;DHT22;4731;49.708;10.816;2023-09-08T02:59:25;13.60;99.90
9383;DHT22;4731;49.708;10.816;2023-09-08T03:01:52;14.20;99.90
9383;DHT22;4731;49.708;10.816;2023-09-08T03:04:18;13.50;99.90
9383;DHT22;4731;49.708;10.816;2023-09-08T03:06:45;14.90;99.90
9383;DHT22;4731;49.708;10.816;2023-09-08T03:09:13;13.50;99.90
9383;DHT22;4731;49.708;10.816;2023-09-08T03:11:41;13.50;99.90
9383;DHT22;4731;49.708;10.816;2023-09-08T03:14:08;13.60;99.90
9383;DHT22;4731;49.708;10.816;2023-09-08T03:16:34;15.40;99.90
9383;DHT22;4731;49.708;10.816;2023-09-08T03:19:01;15.10;99.90
9383;DHT22;4731;49.708;10.816;2023-09-08T03:21:28;13.40;99.90
9383;DHT22;4731;49.708;10.816;2023-09-08T03:23:55;14.80;99.90
9383;DHT22;4731;49.708;10.816;2023-09-08T03:26:23;14.40;99.90
9383;DHT22;4731;49.708;10.816;2023-09-08T03:28:49;15.10;99.90
9383;DHT22;4731;49.708;10.816;2023-09-08T03:31:16;13.20;99.90
9383;DHT22;4731;49.708;10.816;2023-09-08T03:33:43;13.20;99.90
9383;DHT22;4731;49.708;10.816;2023-09-08T03:36:09;13.20;99.90
9383;DHT22;4731;49.708;10.816;2023-09-08T03:38:36;14.00;99.90
9383;DHT22;4731;49.708;10.816;2023-09-08T03:41:03;13.10;99.90
9383;DHT22;4731;49.708;10.816;2023-09-08T03:43:31;13.10;99.90
9383;DHT22;4731;49.708;10.816;2023-09-08T03:45:58;13.00;99.90
9383;DHT22;4731;49.708;10.816;2023-09-08T03:48:25;13.10;99.90
9383;DHT22;4731;49.708;10.816;2023-09-08T03:50:51;13.70;99.90
9383;DHT22;4731;49.708;10.816;2023-09-08T03:53:18;13.00;99.90
9383;DHT22;4731;49.708;10.816;2023-09-08T03:55:45;12.90;99.90
9383;DHT22;4731;49.708;10.816;2023-09-08T03:58:11;15.10;99.90
9383;DHT22;4731;49.708;10.816;2023-09-08T04:00:40;13.00;99.90
9383;DHT22;4731;49.708;10.816;2023-09-08T04:03:06;13.20;99.90
9383;DHT22;4731;49.708;10.816;2023-09-08T04:05:33;12.90;99.90
9383;DHT22;4731;49.708;10.816;2023-09-08T04:08:00;14.30;99.90
9383;DHT22;4731;49.708;10.816;2023-09-08T04:10:27;12.90;99.90
9383;DHT22;4731;49.708;10.816;2023-09-08T04:12:53;12.90;99.90
9383;DHT22;4731;49.708;10.816;2023-09-08T04:15:20;12.80;99.90
9383;DHT22;4731;49.708;10.816;2023-09-08T04:17:48;12.80;99.90
9383;DHT22;4731;49.708;10.816;2023-09-08T04:20:15;12.90;99.90
9383;DHT22;4731;49.708;10.816;2023-09-08T04:22:42;12.80;99.90
9383;DHT22;4731;49.708;10.816;2023-09-08T04:25:09;13.00;99.90
9383;DHT22;4731;49.708;10.816;2023-09-08T04:27:36;12.70;99.90
9383;DHT22;4731;49.708;10.816;2023-09-08T04:30:04;12.80;99.90
9383;DHT22;4731;49.708;10.816;2023-09-08T04:32:31;12.70;99.90
9383;DHT22;4731;49.708;10.816;2023-09-08T04:34:59;14.50;99.90
9383;DHT22;4731;49.708;10.816;2023-09-08T04:37:25;12.70;99.90
9383;DHT22;4731;49.708;10.816;2023-09-08T04:39:52;12.80;99.90
9383;DHT22;4731;49.708;10.816;2023-09-08T04:42:19;12.80;99.90
9383;DHT22;4731;49.708;10.816;2023-09-08T04:44:46;13.40;99.90
9383;DHT22;4731;49.708;10.816;2023-09-08T04:47:13;12.70;99.90
9383;DHT22;4731;49.708;10.816;2023-09-08T04:49:40;12.80;99.90
9383;DHT22;4731;49.708;10.816;2023-09-08T04:52:08;12.80;99.90
9383;DHT22;4731;49.708;10.816;2023-09-08T04:54:36;12.70;99.90
9383;DHT22;4731;49.708;10.816;2023-09-08T04:57:03;12.70;99.90
9383;DHT22;4731;49.708;10.816;2023-09-08T04:59:30;12.70;99.90
9383;DHT22;4731;49.708;10.816;2023-09-08T05:01:58;14.40;99.90
9383;DHT22;4731;49.708;10.816;2023-09-08T05:04:25;12.80;99.90
9383;DHT22;4731;49.708;10.816;2023-09-08T05:06:51;12.80;99.90
9383;DHT22;4731;49.708;10.816;2023-09-08T05:09:19;13.60;99.90
9383;DHT22;4731;49.708;10.816;2023-09-08T05:11:46;12.90;99.90
9383;DHT22;4731;49.708;10.816;2023-09-08T05:14:13;12.90;99.90
9383;DHT22;4731;49.708;10.816;2023-09-08T05:16:40;13.90;99.90
9383;DHT22;4731;49.708;10.816;2023-09-08T05:19:12;13.10;99.90
9383;DHT22;4731;49.708;10.816;2023-09-08T05:21:39;13.20;99.90
9383;DHT22;4731;49.708;10.816;2023-09-08T05:24:06;14.20;99.90
9383;DHT22;4731;49.708;10.816;2023-09-08T05:26:37;13.40;99.90
9383;DHT22;4731;49.708;10.816;2023-09-08T05:29:04;13.50;99.90
9383;DHT22;4731;49.708;10.816;2023-09-08T05:31:31;13.70;99.90
9383;DHT22;4731;49.708;10.816;2023-09-08T05:33:57;16.00;99.90
9383;DHT22;4731;49.708;10.816;2023-09-08T05:36:24;13.90;99.90
9383;DHT22;4731;49.708;10.816;2023-09-08T05:38:51;14.90;99.90
9383;DHT22;4731;49.708;10.816;2023-09-08T05:41:17;14.00;99.90
9383;DHT22;4731;49.708;10.816;2023-09-08T05:43:46;14.20;99.90
9383;DHT22;4731;49.708;10.816;2023-09-08T05:46:12;14.20;99.90
9383;DHT22;4731;49.708;10.816;2023-09-08T05:48:39;14.50;99.90
9383;DHT22;4731;49.708;10.816;2023-09-08T05:51:06;15.90;99.90
9383;DHT22;4731;49.708;10.816;2023-09-08T05:53:33;16.50;99.90
9383;DHT22;4731;49.708;10.816;2023-09-08T05:56:01;15.70;99.90
9383;DHT22;4731;49.708;10.816;2023-09-08T05:58:27;18.90;99.90
9383;DHT22;4731;49.708;10.816;2023-09-08T06:00:56;18.30;99.90
9383;DHT22;4731;49.708;10.816;2023-09-08T06:03:23;19.60;99.90
9383;DHT22;4731;49.708;10.816;2023-09-08T06:05:49;20.80;99.90
9383;DHT22;4731;49.708;10.816;2023-09-08T06:10:43;22.40;99.90
9383;DHT22;4731;49.708;10.816;2023-09-08T06:13:10;23.40;99.90
9383;DHT22;4731;49.708;10.816;2023-09-08T06:15:37;24.10;99.90
9383;DHT22;4731;49.708;10.816;2023-09-08T06:18:05;24.30;99.90
9383;DHT22;4731;49.708;10.816;2023-09-08T06:20:31;24.50;99.90
9383;DHT22;4731;49.708;10.816;2023-09-08T06:22:58;25.10;99.90
9383;DHT22;4731;49.708;10.816;2023-09-08T06:25:25;25.70;99.90
9383;DHT22;4731;49.708;10.816;2023-09-08T06:27:53;26.00;99.90
9383;DHT22;4731;49.708;10.816;2023-09-08T06:30:20;27.50;99.90
9383;DHT22;4731;49.708;10.816;2023-09-08T06:32:47;26.70;99.90
9383;DHT22;4731;49.708;10.816;2023-09-08T06:35:15;26.90;99.90
9383;DHT22;4731;49.708;10.816;2023-09-08T06:37:42;27.00;99.90
9383;DHT22;4731;49.708;10.816;2023-09-08T06:40:09;27.20;99.90
9383;DHT22;4731;49.708;10.816;2023-09-08T06:42:36;27.50;99.90
9383;DHT22;4731;49.708;10.816;2023-09-08T06:45:03;27.60;99.90
9383;DHT22;4731;49.708;10.816;2023-09-08T06:47:29;28.40;99.90
9383;DHT22;4731;49.708;10.816;2023-09-08T06:49:56;28.40;99.90
9383;DHT22;4731;49.708;10.816;2023-09-08T06:52:24;28.50;99.90
9383;DHT22;4731;49.708;10.816;2023-09-08T06:54:51;29.40;99.90
9383;DHT22;4731;49.708;10.816;2023-09-08T06:57:18;29.90;99.90
9383;DHT22;4731;49.708;10.816;2023-09-08T06:59:46;30.00;99.90
9383;DHT22;4731;49.708;10.816;2023-09-08T07:02:13;29.50;99.90
9383;DHT22;4731;49.708;10.816;2023-09-08T07:04:39;29.20;99.90
9383;DHT22;4731;49.708;10.816;2023-09-08T07:07:06;30.50;99.90
9383;DHT22;4731;49.708;10.816;2023-09-08T07:09:35;31.30;99.90
9383;DHT22;4731;49.708;10.816;2023-09-08T07:12:02;31.70;99.90
9383;DHT22;4731;49.708;10.816;2023-09-08T07:14:30;31.30;99.90
9383;DHT22;4731;49.708;10.816;2023-09-08T07:16:57;30.50;99.90
9383;DHT22;4731;49.708;10.816;2023-09-08T07:19:24;30.80;99.90
9383;DHT22;4731;49.708;10.816;2023-09-08T07:21:51;31.40;99.90
9383;DHT22;4731;49.708;10.816;2023-09-08T07:24:18;31.60;99.90
9383;DHT22;4731;49.708;10.816;2023-09-08T07:26:46;31.00;99.90
9383;DHT22;4731;49.708;10.816;2023-09-08T07:29:13;29.60;99.90
9383;DHT22;4731;49.708;10.816;2023-09-08T07:31:40;28.30;99.90
9383;DHT22;4731;49.708;10.816;2023-09-08T07:34:06;29.00;99.90
9383;DHT22;4731;49.708;10.816;2023-09-08T07:36:35;30.40;99.90
9383;DHT22;4731;49.708;10.816;2023-09-08T07:39:01;31.30;99.90
9383;DHT22;4731;49.708;10.816;2023-09-08T07:41:28;32.00;99.90
9383;DHT22;4731;49.708;10.816;2023-09-08T07:43:57;31.70;99.90
9383;DHT22;4731;49.708;10.816;2023-09-08T07:46:24;33.20;99.90
9383;DHT22;4731;49.708;10.816;2023-09-08T07:48:51;33.50;99.90
9383;DHT22;4731;49.708;10.816;2023-09-08T07:51:18;30.20;99.90
9383;DHT22;4731;49.708;10.816;2023-09-08T07:53:44;30.90;99.90
9383;DHT22;4731;49.708;10.816;2023-09-08T07:56:11;31.50;99.90
9383;DHT22;4731;49.708;10.816;2023-09-08T07:58:38;32.60;99.90
9383;DHT22;4731;49.708;10.816;2023-09-08T08:01:06;33.60;99.90
9383;DHT22;4731;49.708;10.816;2023-09-08T08:03:33;32.60;99.90
9383;DHT22;4731;49.708;10.816;2023-09-08T08:06:01;33.70;99.90
9383;DHT22;4731;49.708;10.816;2023-09-08T08:08:28;34.90;99.90
9383;DHT22;4731;49.708;10.816;2023-09-08T08:10:56;33.50;99.90
9383;DHT22;4731;49.708;10.816;2023-09-08T08:13:22;33.80;99.90
9383;DHT22;4731;49.708;10.816;2023-09-08T08:15:49;36.00;99.90
9383;DHT22;4731;49.708;10.816;2023-09-08T08:18:18;37.40;98.10
9383;DHT22;4731;49.708;10.816;2023-09-08T08:20:44;38.50;95.20
9383;DHT22;4731;49.708;10.816;2023-09-08T08:23:11;37.60;91.80
9383;DHT22;4731;49.708;10.816;2023-09-08T08:25:38;38.00;91.70
9383;DHT22;4731;49.708;10.816;2023-09-08T08:28:05;39.40;91.10
9383;DHT22;4731;49.708;10.816;2023-09-08T08:30:32;37.50;90.10
9383;DHT22;4731;49.708;10.816;2023-09-08T08:32:59;36.40;90.40
9383;DHT22;4731;49.708;10.816;2023-09-08T08:35:27;34.60;92.80
9383;DHT22;4731;49.708;10.816;2023-09-08T08:37:54;34.40;94.80
9383;DHT22;4731;49.708;10.816;2023-09-08T08:40:21;36.80;94.20
9383;DHT22;4731;49.708;10.816;2023-09-08T08:42:54;37.10;91.10
9383;DHT22;4731;49.708;10.816;2023-09-08T08:45:23;34.20;92.20
9383;DHT22;4731;49.708;10.816;2023-09-08T08:47:50;33.60;94.50
9383;DHT22;4731;49.708;10.816;2023-09-08T08:50:18;34.00;95.60
9383;DHT22;4731;49.708;10.816;2023-09-08T08:52:46;35.50;94.40
9383;DHT22;4731;49.708;10.816;2023-09-08T08:55:13;37.10;93.00
9383;DHT22;4731;49.708;10.816;2023-09-08T08:57:41;38.70;91.30
9383;DHT22;4731;49.708;10.816;2023-09-08T09:00:10;37.30;85.20
9383;DHT22;4731;49.708;10.816;2023-09-08T09:02:39;37.70;87.90
9383;DHT22;4731;49.708;10.816;2023-09-08T09:05:07;37.30;90.10
9383;DHT22;4731;49.708;10.816;2023-09-08T09:07:35;35.40;90.60
9383;DHT22;4731;49.708;10.816;2023-09-08T09:10:05;35.70;91.20
9383;DHT22;4731;49.708;10.816;2023-09-08T09:12:33;35.10;91.40
9383;DHT22;4731;49.708;10.816;2023-09-08T09:15:00;33.90;92.70
9383;DHT22;4731;49.708;10.816;2023-09-08T09:17:28;36.70;91.30
9383;DHT22;4731;49.708;10.816;2023-09-08T09:20:12;36.80;91.50
9383;DHT22;4731;49.708;10.816;2023-09-08T09:22:39;37.60;88.60
9383;DHT22;4731;49.708;10.816;2023-09-08T09:25:08;36.40;88.40
9383;DHT22;4731;49.708;10.816;2023-09-08T09:27:36;35.90;90.00
9383;DHT22;4731;49.708;10.816;2023-09-08T09:30:07;34.90;90.40
9383;DHT22;4731;49.708;10.816;2023-09-08T09:32:34;36.80;89.90
9383;DHT22;4731;49.708;10.816;2023-09-08T09:35:02;40.20;89.10
9383;DHT22;4731;49.708;10.816;2023-09-08T09:37:29;39.20;82.50
9383;DHT22;4731;49.708;10.816;2023-09-08T09:39:56;37.60;79.80
9383;DHT22;4731;49.708;10.816;2023-09-08T09:42:24;39.10;84.00
9383;DHT22;4731;49.708;10.816;2023-09-08T09:44:54;40.00;80.40
9383;DHT22;4731;49.708;10.816;2023-09-08T09:47:21;41.60;77.80
9383;DHT22;4731;49.708;10.816;2023-09-08T09:49:48;42.80;72.70
9383;DHT22;4731;49.708;10.816;2023-09-08T09:52:20;43.30;72.00
9383;DHT22;4731;49.708;10.816;2023-09-08T09:54:48;40.30;70.30
9383;DHT22;4731;49.708;10.816;2023-09-08T09:57:20;39.60;74.80
9383;DHT22;4731;49.708;10.816;2023-09-08T09:59:49;40.60;73.10
9383;DHT22;4731;49.708;10.816;2023-09-08T10:02:17;39.10;71.20
9383;DHT22;4731;49.708;10.816;2023-09-08T10:04:48;39.90;72.80
9383;DHT22;4731;49.708;10.816;2023-09-08T10:07:15;40.00;71.30
9383;DHT22;4731;49.708;10.816;2023-09-08T10:09:42;38.20;72.70
9383;DHT22;4731;49.708;10.816;2023-09-08T10:12:12;38.20;74.60
9383;DHT22;4731;49.708;10.816;2023-09-08T10:14:41;38.20;77.00
9383;DHT22;4731;49.708;10.816;2023-09-08T10:17:14;39.70;74.30
9383;DHT22;4731;49.708;10.816;2023-09-08T10:19:44;40.90;74.60
9383;DHT22;4731;49.708;10.816;2023-09-08T10:22:16;41.40;69.90
9383;DHT22;4731;49.708;10.816;2023-09-08T10:24:46;40.90;66.70
9383;DHT22;4731;49.708;10.816;2023-09-08T10:27:15;38.70;68.80
9383;DHT22;4731;49.708;10.816;2023-09-08T10:29:45;36.40;73.50
9383;DHT22;4731;49.708;10.816;2023-09-08T10:32:14;34.60;77.20
9383;DHT22;4731;49.708;10.816;2023-09-08T10:34:41;33.70;77.90
9383;DHT22;4731;49.708;10.816;2023-09-08T10:37:19;34.80;79.80
9383;DHT22;4731;49.708;10.816;2023-09-08T10:39:46;36.20;76.70
9383;DHT22;4731;49.708;10.816;2023-09-08T10:42:23;36.20;75.00
9383;DHT22;4731;49.708;10.816;2023-09-08T10:44:59;37.40;75.40
9383;DHT22;4731;49.708;10.816;2023-09-08T10:47:41;37.60;75.80
9383;DHT22;4731;49.708;10.816;2023-09-08T10:50:27;38.70;73.70
9383;DHT22;4731;49.708;10.816;2023-09-08T10:53:11;38.00;71.90
9383;DHT22;4731;49.708;10.816;2023-09-08T10:55:44;37.60;73.00
9383;DHT22;4731;49.708;10.816;2023-09-08T10:58:20;38.00;73.60
9383;DHT22;4731;49.708;10.816;2023-09-08T11:00:50;38.60;71.70
9383;DHT22;4731;49.708;10.816;2023-09-08T11:03:27;38.30;73.30
9383;DHT22;4731;49.708;10.816;2023-09-08T11:05:56;38.20;70.90
9383;DHT22;4731;49.708;10.816;2023-09-08T11:08:23;39.40;71.50
9383;DHT22;4731;49.708;10.816;2023-09-08T11:10:50;39.70;69.70
9383;DHT22;4731;49.708;10.816;2023-09-08T11:13:17;40.40;67.60
9383;DHT22;4731;49.708;10.816;2023-09-08T11:15:44;40.00;68.10
9383;DHT22;4731;49.708;10.816;2023-09-08T11:18:11;40.90;66.30
9383;DHT22;4731;49.708;10.816;2023-09-08T11:20:39;40.60;66.20
9383;DHT22;4731;49.708;10.816;2023-09-08T11:23:06;40.60;67.40
9383;DHT22;4731;49.708;10.816;2023-09-08T11:25:33;41.80;65.30
9383;DHT22;4731;49.708;10.816;2023-09-08T11:28:01;39.80;66.20
9383;DHT22;4731;49.708;10.816;2023-09-08T11:30:28;39.40;65.90
9383;DHT22;4731;49.708;10.816;2023-09-08T11:32:55;39.20;68.60
9383;DHT22;4731;49.708;10.816;2023-09-08T11:35:26;39.40;67.30
9383;DHT22;4731;49.708;10.816;2023-09-08T11:37:59;38.90;69.30
9383;DHT22;4731;49.708;10.816;2023-09-08T11:40:27;39.80;68.10
9383;DHT22;4731;49.708;10.816;2023-09-08T11:42:54;40.50;66.90
9383;DHT22;4731;49.708;10.816;2023-09-08T11:45:21;37.90;68.40
9383;DHT22;4731;49.708;10.816;2023-09-08T11:47:48;37.70;68.70
9383;DHT22;4731;49.708;10.816;2023-09-08T11:50:18;38.40;69.30
9383;DHT22;4731;49.708;10.816;2023-09-08T11:52:47;38.60;69.80
9383;DHT22;4731;49.708;10.816;2023-09-08T11:55:15;38.10;68.30
9383;DHT22;4731;49.708;10.816;2023-09-08T11:57:45;38.40;68.40
9383;DHT22;4731;49.708;10.816;2023-09-08T12:00:12;38.30;68.80
9383;DHT22;4731;49.708;10.816;2023-09-08T12:02:43;36.70;72.10
9383;DHT22;4731;49.708;10.816;2023-09-08T12:05:13;37.10;71.40
9383;DHT22;4731;49.708;10.816;2023-09-08T12:07:40;38.40;70.50
9383;DHT22;4731;49.708;10.816;2023-09-08T12:10:09;40.20;67.70
9383;DHT22;4731;49.708;10.816;2023-09-08T12:12:43;41.20;66.80
9383;DHT22;4731;49.708;10.816;2023-09-08T12:15:10;41.30;66.40
9383;DHT22;4731;49.708;10.816;2023-09-08T12:17:47;41.80;64.60
9383;DHT22;4731;49.708;10.816;2023-09-08T12:20:15;42.50;63.00
9383;DHT22;4731;49.708;10.816;2023-09-08T12:22:47;40.90;62.90
9383;DHT22;4731;49.708;10.816;2023-09-08T12:25:15;38.70;64.20
9383;DHT22;4731;49.708;10.816;2023-09-08T12:27:45;39.20;66.00
9383;DHT22;4731;49.708;10.816;2023-09-08T12:30:17;40.50;64.40
9383;DHT22;4731;49.708;10.816;2023-09-08T12:32:45;39.40;62.80
9383;DHT22;4731;49.708;10.816;2023-09-08T12:35:13;36.80;66.10
9383;DHT22;4731;49.708;10.816;2023-09-08T12:37:40;36.60;67.00
9383;DHT22;4731;49.708;10.816;2023-09-08T12:40:08;35.80;68.20
9383;DHT22;4731;49.708;10.816;2023-09-08T12:42:35;35.70;69.30
9383;DHT22;4731;49.708;10.816;2023-09-08T12:45:04;37.20;67.90
9383;DHT22;4731;49.708;10.816;2023-09-08T12:47:31;36.70;66.60
9383;DHT22;4731;49.708;10.816;2023-09-08T12:49:58;36.30;68.30
9383;DHT22;4731;49.708;10.816;2023-09-08T12:52:25;36.70;67.20
9383;DHT22;4731;49.708;10.816;2023-09-08T12:54:52;37.90;66.50
9383;DHT22;4731;49.708;10.816;2023-09-08T12:57:18;38.30;67.10
9383;DHT22;4731;49.708;10.816;2023-09-08T12:59:45;38.30;65.70
9383;DHT22;4731;49.708;10.816;2023-09-08T13:02:14;39.40;64.70
9383;DHT22;4731;49.708;10.816;2023-09-08T13:04:40;39.40;62.60
9383;DHT22;4731;49.708;10.816;2023-09-08T13:07:07;39.50;60.70
9383;DHT22;4731;49.708;10.816;2023-09-08T13:09:34;39.50;63.10
9383;DHT22;4731;49.708;10.816;2023-09-08T13:12:00;40.90;62.20
9383;DHT22;4731;49.708;10.816;2023-09-08T13:14:27;41.30;60.30
9383;DHT22;4731;49.708;10.816;2023-09-08T13:16:54;38.00;61.50
9383;DHT22;4731;49.708;10.816;2023-09-08T13:19:22;36.70;65.50
9383;DHT22;4731;49.708;10.816;2023-09-08T13:21:49;36.70;67.20
9383;DHT22;4731;49.708;10.816;2023-09-08T13:24:15;37.00;66.80
9383;DHT22;4731;49.708;10.816;2023-09-08T13:26:42;38.70;64.80
9383;DHT22;4731;49.708;10.816;2023-09-08T13:29:09;38.40;64.30
9383;DHT22;4731;49.708;10.816;2023-09-08T13:31:35;39.50;64.40
9383;DHT22;4731;49.708;10.816;2023-09-08T13:34:02;40.20;62.40
9383;DHT22;4731;49.708;10.816;2023-09-08T13:36:30;40.20;62.40
9383;DHT22;4731;49.708;10.816;2023-09-08T13:38:57;40.90;61.50
9383;DHT22;4731;49.708;10.816;2023-09-08T13:41:24;39.70;61.40
9383;DHT22;4731;49.708;10.816;2023-09-08T13:43:50;39.20;62.90
9383;DHT22;4731;49.708;10.816;2023-09-08T13:46:17;39.30;63.10
9383;DHT22;4731;49.708;10.816;2023-09-08T13:48:44;38.50;62.30
9383;DHT22;4731;49.708;10.816;2023-09-08T13:51:11;37.90;61.80
9383;DHT22;4731;49.708;10.816;2023-09-08T13:53:39;36.90;63.30
9383;DHT22;4731;49.708;10.816;2023-09-08T13:56:06;36.60;64.40
9383;DHT22;4731;49.708;10.816;2023-09-08T13:58:32;36.20;66.50
9383;DHT22;4731;49.708;10.816;2023-09-08T14:00:59;35.70;66.40
9383;DHT22;4731;49.708;10.816;2023-09-08T14:03:26;35.70;66.80
9383;DHT22;4731;49.708;10.816;2023-09-08T14:05:53;36.20;65.80
9383;DHT22;4731;49.708;10.816;2023-09-08T14:08:19;37.20;65.90
9383;DHT22;4731;49.708;10.816;2023-09-08T14:10:47;37.80;66.10
9383;DHT22;4731;49.708;10.816;2023-09-08T14:13:14;37.40;65.40
9383;DHT22;4731;49.708;10.816;2023-09-08T14:15:41;35.80;66.60
9383;DHT22;4731;49.708;10.816;2023-09-08T14:18:08;34.40;68.30
9383;DHT22;4731;49.708;10.816;2023-09-08T14:20:35;34.60;71.00
9383;DHT22;4731;49.708;10.816;2023-09-08T14:23:02;34.00;72.10
9383;DHT22;4731;49.708;10.816;2023-09-08T14:25:29;34.10;72.40
9383;DHT22;4731;49.708;10.816;2023-09-08T14:27:57;32.80;71.40
9383;DHT22;4731;49.708;10.816;2023-09-08T14:30:24;32.50;73.30
9383;DHT22;4731;49.708;10.816;2023-09-08T14:32:51;32.10;74.80
9383;DHT22;4731;49.708;10.816;2023-09-08T14:35:17;32.10;74.90
9383;DHT22;4731;49.708;10.816;2023-09-08T14:37:46;31.80;75.70
9383;DHT22;4731;49.708;10.816;2023-09-08T14:40:13;30.40;78.20
9383;DHT22;4731;49.708;10.816;2023-09-08T14:42:40;30.60;80.40
9383;DHT22;4731;49.708;10.816;2023-09-08T14:45:09;30.50;81.40
9383;DHT22;4731;49.708;10.816;2023-09-08T14:47:36;30.30;82.50
9383;DHT22;4731;49.708;10.816;2023-09-08T14:50:03;30.20;82.50
9383;DHT22;4731;49.708;10.816;2023-09-08T14:52:30;30.40;83.10
9383;DHT22;4731;49.708;10.816;2023-09-08T14:54:57;30.30;84.70
9383;DHT22;4731;49.708;10.816;2023-09-08T14:57:24;30.40;84.60
9383;DHT22;4731;49.708;10.816;2023-09-08T14:59:55;30.30;85.10
9383;DHT22;4731;49.708;10.816;2023-09-08T15:02:23;30.20;84.60
9383;DHT22;4731;49.708;10.816;2023-09-08T15:04:51;30.00;83.40
9383;DHT22;4731;49.708;10.816;2023-09-08T15:07:17;29.80;83.60
9383;DHT22;4731;49.708;10.816;2023-09-08T15:09:44;29.80;83.10
9383;DHT22;4731;49.708;10.816;2023-09-08T15:12:11;29.50;84.70
9383;DHT22;4731;49.708;10.816;2023-09-08T15:14:38;29.50;86.20
9383;DHT22;4731;49.708;10.816;2023-09-08T15:17:05;29.40;82.20
9383;DHT22;4731;49.708;10.816;2023-09-08T15:19:33;29.40;80.10
9383;DHT22;4731;49.708;10.816;2023-09-08T15:21:59;29.00;83.30
9383;DHT22;4731;49.708;10.816;2023-09-08T15:26:54;28.90;87.00
9383;DHT22;4731;49.708;10.816;2023-09-08T15:29:22;28.90;89.10
9383;DHT22;4731;49.708;10.816;2023-09-08T15:31:49;28.80;89.50
9383;DHT22;4731;49.708;10.816;2023-09-08T15:34:17;28.60;91.10
9383;DHT22;4731;49.708;10.816;2023-09-08T15:36:45;28.60;91.40
9383;DHT22;4731;49.708;10.816;2023-09-08T15:39:12;28.60;91.30
9383;DHT22;4731;49.708;10.816;2023-09-08T15:41:39;28.60;90.90
9383;DHT22;4731;49.708;10.816;2023-09-08T15:44:06;28.40;91.00
9383;DHT22;4731;49.708;10.816;2023-09-08T15:46:33;28.40;92.20
9383;DHT22;4731;49.708;10.816;2023-09-08T15:49:00;28.40;92.30
9383;DHT22;4731;49.708;10.816;2023-09-08T15:51:27;28.40;91.60
9383;DHT22;4731;49.708;10.816;2023-09-08T15:53:55;28.30;92.20
9383;DHT22;4731;49.708;10.816;2023-09-08T15:58:49;28.20;91.90
9383;DHT22;4731;49.708;10.816;2023-09-08T16:01:16;28.10;92.50